Time;durP1;ratioP1;P1;durP2;ratioP2;P2;SDS_P1;SDS_P2;PMS_P1;PMS_P2;Temp;Humidity;BMP_temperature;BMP_pressure;BME280_temperature;BME280_humidity;BME280_pressure;Samples;Min_cycle;Max_cycle;Signal;HPM_P1;HPM_P2
2021/12/25 00:01:20;;;;;;;44.97;28.30;;;;;;;;;;5072063;28;20480;-80
2021/12/25 00:03:48;;;;;;;45.07;27.90;;;;;;;;;;5053895;28;20443;-82
2021/12/25 00:06:16;;;;;;;47.23;29.10;;;;;;;;;;5070470;28;20551;-82
2021/12/25 00:08:44;;;;;;;42.30;27.57;;;;;;;;;;5081526;28;20532;-80
2021/12/25 00:11:11;;;;;;;43.17;26.50;;;;;;;;;;5069809;28;20486;-81
2021/12/25 00:13:40;;;;;;;36.27;22.57;;;;;;;;;;5059872;28;20447;-81
2021/12/25 00:16:07;;;;;;;32.10;23.37;;;;;;;;;;5079892;28;20462;-81
2021/12/25 00:18:35;;;;;;;33.97;23.20;;;;;;;;;;5084086;28;20459;-78
2021/12/25 00:21:02;;;;;;;32.33;21.77;;;;;;;;;;5077568;28;20472;-81
2021/12/25 00:23:33;;;;;;;30.27;20.13;;;;;;;;;;5072000;28;20444;-84
2021/12/25 00:26:05;;;;;;;32.37;20.63;;;;;;;;;;5083415;28;20486;-82
2021/12/25 00:28:50;;;;;;;27.50;18.07;;;;;;;;;;5089630;28;20504;-78
2021/12/25 00:34:01;;;;;;;36.03;20.17;;;;;;;;;;5069339;28;20455;-80
2021/12/25 00:36:30;;;;;;;28.13;18.70;;;;;;;;;;5071360;28;20436;-80
2021/12/25 00:38:58;;;;;;;29.73;18.80;;;;;;;;;;5073204;28;20458;-85
2021/12/25 00:41:26;;;;;;;34.77;19.57;;;;;;;;;;5078616;28;20459;-83
2021/12/25 00:43:53;;;;;;;27.77;18.50;;;;;;;;;;5076728;28;20539;-83
2021/12/25 00:46:20;;;;;;;30.90;16.90;;;;;;;;;;5052900;28;20563;-81
2021/12/25 00:48:48;;;;;;;29.37;17.40;;;;;;;;;;5070132;28;20949;-85
2021/12/25 00:51:15;;;;;;;30.60;19.80;;;;;;;;;;5070580;28;20456;-81
2021/12/25 00:53:42;;;;;;;25.30;15.70;;;;;;;;;;5091426;28;20788;-81
2021/12/25 00:56:11;;;;;;;22.03;14.53;;;;;;;;;;5068829;28;20825;-84
2021/12/25 00:58:38;;;;;;;21.97;13.07;;;;;;;;;;5075703;28;20802;-82
2021/12/25 01:01:05;;;;;;;17.43;11.47;;;;;;;;;;5071256;28;20479;-82
2021/12/25 01:03:33;;;;;;;21.17;12.83;;;;;;;;;;5052664;28;20914;-78
2021/12/25 01:06:00;;;;;;;18.43;12.67;;;;;;;;;;5070756;28;20483;-82
2021/12/25 01:08:27;;;;;;;15.97;10.30;;;;;;;;;;5084569;28;20798;-82
2021/12/25 01:10:54;;;;;;;18.97;12.83;;;;;;;;;;5075007;28;20456;-78
2021/12/25 01:13:26;;;;;;;17.87;13.03;;;;;;;;;;5082039;28;20968;-79
2021/12/25 01:16:07;;;;;;;17.77;12.37;;;;;;;;;;5074697;28;20808;-81
2021/12/25 01:24:19;;;;;;;18.67;11.70;;;;;;;;;;5038944;28;20470;-78
2021/12/25 01:27:02;;;;;;;17.07;11.77;;;;;;;;;;5069399;28;20813;-82
2021/12/25 01:29:37;;;;;;;17.20;11.50;;;;;;;;;;5071913;28;20460;-81
2021/12/25 01:32:39;;;;;;;18.80;10.43;;;;;;;;;;5075763;28;20433;-82
2021/12/25 01:35:26;;;;;;;19.20;11.07;;;;;;;;;;5070104;28;21048;-78
2021/12/25 01:38:04;;;;;;;14.40;9.93;;;;;;;;;;5089228;28;20435;-80
2021/12/25 01:40:51;;;;;;;11.37;9.10;;;;;;;;;;5073454;28;20459;-80
2021/12/25 01:48:43;;;;;;;10.93;8.50;;;;;;;;;;5058914;28;20919;-82
2021/12/25 01:51:10;;;;;;;11.20;8.57;;;;;;;;;;5068701;28;20472;-81
2021/12/25 01:53:37;;;;;;;10.67;7.13;;;;;;;;;;5068939;28;20435;-80
2021/12/25 01:56:05;;;;;;;8.17;6.37;;;;;;;;;;5078839;28;20456;-79
2021/12/25 01:58:32;;;;;;;11.53;7.20;;;;;;;;;;5087240;28;20443;-83
2021/12/25 02:01:01;;;;;;;8.13;6.33;;;;;;;;;;5089368;28;20458;-80
2021/12/25 02:03:31;;;;;;;8.60;6.10;;;;;;;;;;5078335;28;20464;-82
2021/12/25 02:05:58;;;;;;;10.10;7.80;;;;;;;;;;5076924;28;20483;-81
2021/12/25 02:08:26;;;;;;;9.60;7.00;;;;;;;;;;5068663;28;20474;-79
2021/12/25 02:10:53;;;;;;;10.07;7.10;;;;;;;;;;5085568;28;21002;-82
2021/12/25 02:13:21;;;;;;;10.47;6.80;;;;;;;;;;5088311;28;20466;-81
2021/12/25 02:15:51;;;;;;;8.60;6.03;;;;;;;;;;5083556;28;20867;-79
2021/12/25 02:18:25;;;;;;;9.50;7.33;;;;;;;;;;5087532;28;20558;-79
2021/12/25 02:21:00;;;;;;;10.07;6.63;;;;;;;;;;5071019;28;20459;-78
2021/12/25 02:23:27;;;;;;;10.57;6.33;;;;;;;;;;5069605;28;20819;-81
2021/12/25 02:25:56;;;;;;;8.20;6.27;;;;;;;;;;5072342;28;20479;-80
2021/12/25 02:28:24;;;;;;;18.30;13.57;;;;;;;;;;5075985;28;20442;-80
2021/12/25 02:30:52;;;;;;;12.50;9.00;;;;;;;;;;5088229;28;20455;-83
2021/12/25 02:33:19;;;;;;;10.45;6.20;;;;;;;;;;5065057;28;20464;-82
2021/12/25 02:35:47;;;;;;;7.93;6.30;;;;;;;;;;5088869;28;20216;-79
2021/12/25 02:38:15;;;;;;;7.80;5.60;;;;;;;;;;5071464;28;20193;-83
2021/12/25 02:40:43;;;;;;;5.80;5.20;;;;;;;;;;5066990;28;21516;-82
2021/12/25 02:43:11;;;;;;;7.95;5.43;;;;;;;;;;5073300;28;20455;-78
2021/12/25 02:45:38;;;;;;;6.03;5.20;;;;;;;;;;5071399;28;20230;-84
2021/12/25 02:48:08;;;;;;;7.53;5.10;;;;;;;;;;5072710;28;20443;-81
2021/12/25 02:50:35;;;;;;;6.43;5.50;;;;;;;;;;5057177;28;20451;-80
2021/12/25 02:53:22;;;;;;;6.27;5.07;;;;;;;;;;5069023;28;20431;-83
2021/12/25 02:55:51;;;;;;;6.87;5.20;;;;;;;;;;5018375;28;20981;-80
2021/12/25 02:58:19;;;;;;;6.10;4.63;;;;;;;;;;5025910;28;20473;-82
2021/12/25 03:00:49;;;;;;;5.20;4.70;;;;;;;;;;5023812;28;20625;-81
2021/12/25 03:03:16;;;;;;;5.27;4.77;;;;;;;;;;5018103;28;20468;-80
2021/12/25 03:05:43;;;;;;;5.47;4.78;;;;;;;;;;5011077;28;20526;-81
2021/12/25 03:08:11;;;;;;;6.30;4.97;;;;;;;;;;4991982;28;20211;-84
2021/12/25 03:10:40;;;;;;;12.80;8.48;;;;;;;;;;5007927;28;20605;-84
2021/12/25 03:13:29;;;;;;;9.67;7.10;;;;;;;;;;5026342;28;20192;-80
2021/12/25 03:15:56;;;;;;;7.45;6.28;;;;;;;;;;5086995;28;20462;-82
2021/12/25 03:18:25;;;;;;;6.70;5.10;;;;;;;;;;5083439;28;20225;-82
2021/12/25 03:20:53;;;;;;;5.60;4.67;;;;;;;;;;5088702;28;20726;-82
2021/12/25 03:23:22;;;;;;;5.30;4.43;;;;;;;;;;5075030;28;20446;-83
2021/12/25 03:25:50;;;;;;;5.00;4.50;;;;;;;;;;5084337;28;20228;-82
2021/12/25 03:28:21;;;;;;;5.03;4.30;;;;;;;;;;5076602;28;20956;-80
2021/12/25 03:30:49;;;;;;;6.05;5.00;;;;;;;;;;5053440;28;20455;-79
2021/12/25 03:33:17;;;;;;;5.53;4.70;;;;;;;;;;5071596;28;20197;-82
2021/12/25 03:35:44;;;;;;;6.10;4.60;;;;;;;;;;5088433;28;21014;-79
2021/12/25 03:38:14;;;;;;;6.65;4.25;;;;;;;;;;5073069;28;20530;-83
2021/12/25 03:40:41;;;;;;;4.73;4.17;;;;;;;;;;5092047;28;20220;-80
2021/12/25 03:43:08;;;;;;;5.30;4.40;;;;;;;;;;5093649;28;20447;-81
2021/12/25 03:45:37;;;;;;;5.63;4.93;;;;;;;;;;5088534;28;20488;-81
2021/12/25 03:48:10;;;;;;;5.28;4.45;;;;;;;;;;5074824;28;20447;-81
2021/12/25 03:53:36;;;;;;;5.63;4.78;;;;;;;;;;5088147;28;20205;-81
2021/12/25 03:58:45;;;;;;;5.05;4.00;;;;;;;;;;5085595;28;20363;-83
2021/12/25 04:01:26;;;;;;;5.00;3.93;;;;;;;;;;5075628;28;20681;-83
2021/12/25 04:04:02;;;;;;;6.30;3.90;;;;;;;;;;5085828;28;20951;-79
2021/12/25 04:06:30;;;;;;;5.05;4.35;;;;;;;;;;5078799;28;20619;-80
2021/12/25 04:08:57;;;;;;;4.25;3.85;;;;;;;;;;5088288;28;20202;-81
2021/12/25 04:11:28;;;;;;;5.80;4.15;;;;;;;;;;5091095;28;20217;-82
2021/12/25 04:13:55;;;;;;;5.07;4.57;;;;;;;;;;5072580;28;20555;-82
2021/12/25 04:16:26;;;;;;;4.60;3.72;;;;;;;;;;5091941;28;20197;-83
2021/12/25 04:18:53;;;;;;;5.55;4.40;;;;;;;;;;5090683;28;20217;-83
2021/12/25 04:21:22;;;;;;;5.47;3.83;;;;;;;;;;5084634;28;20587;-82
2021/12/25 04:23:49;;;;;;;5.20;4.25;;;;;;;;;;5076248;28;20635;-82
2021/12/25 04:26:16;;;;;;;4.90;4.40;;;;;;;;;;5072456;28;20268;-84
2021/12/25 04:28:48;;;;;;;5.70;4.50;;;;;;;;;;5053066;28;20652;-83
2021/12/25 04:31:25;;;;;;;9.00;6.53;;;;;;;;;;5084825;28;20244;-82
2021/12/25 04:50:17;;;;;;;7.75;4.85;;;;;;;;;;5069080;28;20217;-85
2021/12/25 05:03:41;;;;;;;10.75;7.00;;;;;;;;;;5074970;28;20583;-84
2021/12/25 05:06:10;;;;;;;10.32;7.18;;;;;;;;;;5070860;28;20766;-83
2021/12/25 05:08:37;;;;;;;10.02;7.35;;;;;;;;;;5081165;28;20225;-84
2021/12/25 05:11:04;;;;;;;10.15;7.30;;;;;;;;;;5057840;28;20606;-85
2021/12/25 05:13:32;;;;;;;9.30;7.78;;;;;;;;;;5084108;28;20197;-84
2021/12/25 05:16:00;;;;;;;9.25;7.25;;;;;;;;;;5087081;28;20206;-84
2021/12/25 05:18:27;;;;;;;10.35;7.78;;;;;;;;;;5082301;28;20213;-82
2021/12/25 05:20:54;;;;;;;9.90;6.90;;;;;;;;;;5069027;28;20685;-85
2021/12/25 05:23:22;;;;;;;10.68;7.57;;;;;;;;;;5072917;28;20518;-82
2021/12/25 05:25:50;;;;;;;10.70;7.75;;;;;;;;;;5076390;28;20204;-82
2021/12/25 05:28:24;;;;;;;11.73;7.50;;;;;;;;;;5072231;28;20190;-85
2021/12/25 05:30:51;;;;;;;10.25;7.30;;;;;;;;;;5087075;28;20704;-89
2021/12/25 05:33:19;;;;;;;11.13;8.40;;;;;;;;;;5088553;28;20181;-83
2021/12/25 05:35:46;;;;;;;11.15;6.88;;;;;;;;;;5089515;28;20196;-86
2021/12/25 05:38:15;;;;;;;10.32;7.22;;;;;;;;;;5088408;28;20280;-85
2021/12/25 05:40:43;;;;;;;10.57;7.97;;;;;;;;;;5072028;28;20217;-89
2021/12/25 05:43:10;;;;;;;16.77;7.90;;;;;;;;;;5074567;28;20279;-86
2021/12/25 05:45:38;;;;;;;14.30;8.82;;;;;;;;;;5072447;28;20224;-85
2021/12/25 05:48:05;;;;;;;13.43;8.35;;;;;;;;;;5069127;28;20286;-84
2021/12/25 05:50:33;;;;;;;10.93;7.45;;;;;;;;;;5079065;28;20218;-87
2021/12/25 05:53:00;;;;;;;11.35;8.43;;;;;;;;;;5064705;28;20340;-83
2021/12/25 05:55:27;;;;;;;11.20;8.10;;;;;;;;;;5088969;28;20197;-86
2021/12/25 05:57:56;;;;;;;11.85;7.40;;;;;;;;;;5075753;28;20205;-85
2021/12/25 06:00:23;;;;;;;12.85;8.13;;;;;;;;;;5075378;28;20217;-85
2021/12/25 06:02:52;;;;;;;11.23;7.95;;;;;;;;;;5088273;28;20204;-87
2021/12/25 06:05:19;;;;;;;10.60;7.63;;;;;;;;;;5088445;28;20197;-86
2021/12/25 06:07:47;;;;;;;13.85;9.32;;;;;;;;;;5085684;28;20372;-88
2021/12/25 06:10:14;;;;;;;14.70;8.52;;;;;;;;;;5085804;28;20239;-87
2021/12/25 06:12:42;;;;;;;15.57;8.75;;;;;;;;;;5092757;28;20228;-82
2021/12/25 06:15:11;;;;;;;14.57;9.20;;;;;;;;;;5059363;28;20202;-87
2021/12/25 06:17:39;;;;;;;15.63;8.73;;;;;;;;;;5074328;28;20328;-85
2021/12/25 06:20:07;;;;;;;11.90;8.52;;;;;;;;;;5083927;28;20209;-86
2021/12/25 06:22:36;;;;;;;14.60;9.27;;;;;;;;;;5068236;28;20297;-85
2021/12/25 06:25:03;;;;;;;15.88;9.48;;;;;;;;;;5075725;28;20193;-84
2021/12/25 06:27:30;;;;;;;15.65;10.15;;;;;;;;;;5086474;28;20259;-85
2021/12/25 06:29:57;;;;;;;13.43;9.23;;;;;;;;;;5082084;28;20223;-88
2021/12/25 06:32:26;;;;;;;12.57;9.45;;;;;;;;;;5073291;28;20635;-85
2021/12/25 06:34:53;;;;;;;13.00;8.20;;;;;;;;;;5082347;28;20189;-86
2021/12/25 06:37:21;;;;;;;15.77;9.70;;;;;;;;;;5086303;28;20193;-84
2021/12/25 06:39:48;;;;;;;18.25;10.68;;;;;;;;;;5088110;28;20217;-85
2021/12/25 06:42:15;;;;;;;16.98;9.88;;;;;;;;;;5080372;28;20203;-84
2021/12/25 06:44:43;;;;;;;14.95;10.00;;;;;;;;;;5071274;28;20207;-83
2021/12/25 06:47:10;;;;;;;13.27;8.90;;;;;;;;;;5076604;28;20220;-82
2021/12/25 06:49:41;;;;;;;14.85;9.13;;;;;;;;;;5056028;28;20690;-85
2021/12/25 06:52:09;;;;;;;15.27;10.15;;;;;;;;;;5070308;28;20212;-82
2021/12/25 06:54:36;;;;;;;16.10;11.13;;;;;;;;;;5067024;28;20206;-87
2021/12/25 06:57:03;;;;;;;13.10;9.98;;;;;;;;;;5067066;28;20205;-86
2021/12/25 06:59:31;;;;;;;14.57;8.50;;;;;;;;;;5067725;28;20284;-84
2021/12/25 07:01:58;;;;;;;14.23;9.15;;;;;;;;;;5074671;28;20292;-85
2021/12/25 07:04:25;;;;;;;15.88;9.43;;;;;;;;;;5056555;28;20190;-83
2021/12/25 07:06:54;;;;;;;14.65;9.45;;;;;;;;;;5069525;28;20217;-88
2021/12/25 07:09:21;;;;;;;13.88;9.63;;;;;;;;;;5069618;28;20738;-86
2021/12/25 07:11:48;;;;;;;13.57;9.38;;;;;;;;;;5076504;28;20199;-82
2021/12/25 07:14:15;;;;;;;14.45;8.90;;;;;;;;;;5069083;28;20205;-84
2021/12/25 07:16:42;;;;;;;15.40;9.73;;;;;;;;;;5073223;28;20288;-84
2021/12/25 07:19:15;;;;;;;15.75;10.48;;;;;;;;;;5088344;28;20217;-87
2021/12/25 07:21:43;;;;;;;12.10;8.88;;;;;;;;;;5087804;28;20189;-84
2021/12/25 07:24:12;;;;;;;13.75;8.95;;;;;;;;;;5080084;28;20235;-81
2021/12/25 07:26:39;;;;;;;12.52;8.98;;;;;;;;;;5073128;28;20221;-81
2021/12/25 07:29:06;;;;;;;14.48;9.70;;;;;;;;;;5082983;28;20193;-82
2021/12/25 07:31:33;;;;;;;15.05;9.65;;;;;;;;;;5086504;28;20220;-80
2021/12/25 07:34:02;;;;;;;11.63;8.35;;;;;;;;;;5087300;28;20189;-82
2021/12/25 07:36:29;;;;;;;11.75;7.75;;;;;;;;;;5087868;28;20246;-81
2021/12/25 07:38:56;;;;;;;14.45;8.60;;;;;;;;;;5088436;28;20250;-81
2021/12/25 07:41:25;;;;;;;10.82;7.80;;;;;;;;;;5088938;28;20219;-82
2021/12/25 07:43:52;;;;;;;15.07;9.18;;;;;;;;;;5090787;28;20197;-81
2021/12/25 07:46:21;;;;;;;9.57;7.90;;;;;;;;;;5082155;28;20211;-80
2021/12/25 07:48:49;;;;;;;13.27;9.43;;;;;;;;;;5073878;28;20666;-83
2021/12/25 07:51:16;;;;;;;11.18;8.00;;;;;;;;;;5050146;28;20222;-82
2021/12/25 07:53:45;;;;;;;10.27;8.70;;;;;;;;;;5068080;28;20200;-83
2021/12/25 07:56:12;;;;;;;10.18;8.27;;;;;;;;;;5069365;28;20380;-83
2021/12/25 07:58:42;;;;;;;11.25;8.18;;;;;;;;;;5072281;28;20190;-81
2021/12/25 08:01:09;;;;;;;9.60;7.70;;;;;;;;;;5087565;28;20220;-79
2021/12/25 08:03:36;;;;;;;11.35;8.00;;;;;;;;;;5085382;28;20774;-81
2021/12/25 08:06:04;;;;;;;12.65;8.77;;;;;;;;;;5068682;28;20190;-86
2021/12/25 08:08:31;;;;;;;13.48;8.90;;;;;;;;;;5084759;28;20222;-82
2021/12/25 08:10:58;;;;;;;12.45;8.35;;;;;;;;;;5076782;28;20583;-80
2021/12/25 08:13:25;;;;;;;11.13;8.50;;;;;;;;;;5082576;28;20219;-82
2021/12/25 08:15:54;;;;;;;12.00;8.98;;;;;;;;;;5073625;28;20221;-81
2021/12/25 08:18:21;;;;;;;13.40;8.73;;;;;;;;;;5073614;28;20221;-82
2021/12/25 08:20:53;;;;;;;10.38;8.20;;;;;;;;;;5072108;28;20213;-82
2021/12/25 08:23:20;;;;;;;10.82;8.65;;;;;;;;;;5088412;28;20185;-81
2021/12/25 08:25:48;;;;;;;10.93;8.00;;;;;;;;;;5065503;28;20647;-81
2021/12/25 08:28:15;;;;;;;9.65;7.25;;;;;;;;;;5076799;28;20232;-82
2021/12/25 08:30:42;;;;;;;10.60;8.05;;;;;;;;;;5072276;28;20217;-82
2021/12/25 08:33:10;;;;;;;8.70;7.82;;;;;;;;;;5089704;28;20197;-83
2021/12/25 08:35:38;;;;;;;8.10;6.65;;;;;;;;;;5088226;28;20312;-83
2021/12/25 08:38:05;;;;;;;9.30;6.35;;;;;;;;;;5089709;28;20194;-82
2021/12/25 08:40:32;;;;;;;9.63;7.20;;;;;;;;;;5087596;28;20222;-83
2021/12/25 08:43:02;;;;;;;8.70;6.82;;;;;;;;;;5093860;28;20229;-82
2021/12/25 08:45:41;;;;;;;7.70;6.20;;;;;;;;;;5090928;28;20724;-83
2021/12/25 08:48:11;;;;;;;9.93;7.25;;;;;;;;;;5084258;28;20232;-84
2021/12/25 08:50:40;;;;;;;8.48;6.60;;;;;;;;;;5075252;28;20257;-83
2021/12/25 08:53:08;;;;;;;7.43;6.25;;;;;;;;;;5053783;28;20705;-81
2021/12/25 08:55:35;;;;;;;9.85;7.20;;;;;;;;;;5073094;28;20193;-79
2021/12/25 08:58:02;;;;;;;9.70;7.10;;;;;;;;;;5083364;28;20205;-80
2021/12/25 09:00:30;;;;;;;8.05;6.45;;;;;;;;;;5082170;28;20210;-80
2021/12/25 09:02:57;;;;;;;7.70;6.30;;;;;;;;;;5068993;28;20216;-81
2021/12/25 09:05:24;;;;;;;6.90;5.93;;;;;;;;;;5071791;28;20885;-82
2021/12/25 09:07:53;;;;;;;8.65;6.50;;;;;;;;;;5071859;28;20400;-81
2021/12/25 09:10:23;;;;;;;6.63;5.90;;;;;;;;;;5074623;28;20328;-81
2021/12/25 09:12:50;;;;;;;7.05;5.80;;;;;;;;;;5075995;28;20209;-83
2021/12/25 09:15:18;;;;;;;9.52;6.43;;;;;;;;;;5073151;28;20190;-82
2021/12/25 09:17:46;;;;;;;7.95;5.80;;;;;;;;;;5080996;28;20717;-82
2021/12/25 09:20:14;;;;;;;8.52;6.03;;;;;;;;;;5088696;28;20244;-82
2021/12/25 09:22:41;;;;;;;7.03;5.85;;;;;;;;;;5090753;28;20190;-82
2021/12/25 09:25:10;;;;;;;7.50;5.30;;;;;;;;;;5089829;28;20213;-82
2021/12/25 09:27:37;;;;;;;6.95;5.95;;;;;;;;;;5088755;28;20217;-81
2021/12/25 09:30:05;;;;;;;7.65;5.45;;;;;;;;;;5075022;28;20428;-81
2021/12/25 09:32:32;;;;;;;5.60;5.03;;;;;;;;;;5063706;28;20206;-81
2021/12/25 09:35:00;;;;;;;5.78;4.70;;;;;;;;;;5078519;28;20231;-81
2021/12/25 09:37:27;;;;;;;5.82;4.40;;;;;;;;;;5076485;28;20738;-81
2021/12/25 09:39:54;;;;;;;4.15;3.75;;;;;;;;;;5072188;28;20210;-84
2021/12/25 09:42:24;;;;;;;4.25;3.83;;;;;;;;;;5079761;28;20204;-83
2021/12/25 09:44:52;;;;;;;4.15;3.55;;;;;;;;;;5073731;28;20190;-83
2021/12/25 09:47:19;;;;;;;6.50;3.80;;;;;;;;;;5083560;28;20685;-82
2021/12/25 09:49:46;;;;;;;3.95;3.55;;;;;;;;;;5089568;28;20217;-85
2021/12/25 09:52:14;;;;;;;6.45;2.85;;;;;;;;;;5082227;28;20665;-82
2021/12/25 09:54:41;;;;;;;3.40;3.10;;;;;;;;;;5085823;28;20194;-83
2021/12/25 09:57:08;;;;;;;3.30;3.00;;;;;;;;;;5078000;28;20555;-84
2021/12/25 09:59:37;;;;;;;4.40;3.15;;;;;;;;;;5059915;28;20671;-79
2021/12/25 10:02:04;;;;;;;2.47;2.28;;;;;;;;;;5068988;28;20208;-83
2021/12/25 10:04:34;;;;;;;3.25;2.95;;;;;;;;;;5082971;28;20194;-85
2021/12/25 10:07:12;;;;;;;4.10;2.90;;;;;;;;;;5079241;28;20191;-84
2021/12/25 10:09:39;;;;;;;3.13;2.63;;;;;;;;;;5056370;28;20239;-84
2021/12/25 10:12:09;;;;;;;3.38;3.03;;;;;;;;;;5075470;28;20671;-83
2021/12/25 10:14:37;;;;;;;3.20;2.90;;;;;;;;;;5072327;28;20217;-85
2021/12/25 10:17:13;;;;;;;2.75;2.55;;;;;;;;;;5087749;28;20280;-84
2021/12/25 10:19:41;;;;;;;3.10;2.20;;;;;;;;;;5080470;28;20224;-86
2021/12/25 10:22:10;;;;;;;2.65;2.45;;;;;;;;;;5080801;28;20198;-86
2021/12/25 10:24:47;;;;;;;2.33;2.00;;;;;;;;;;5061045;28;20205;-82
2021/12/25 10:27:16;;;;;;;2.10;1.90;;;;;;;;;;5068967;28;20216;-83
2021/12/25 10:29:45;;;;;;;2.25;2.05;;;;;;;;;;5079833;28;20563;-86
2021/12/25 10:32:18;;;;;;;3.15;2.13;;;;;;;;;;5063800;28;20202;-83
2021/12/25 10:34:46;;;;;;;2.15;1.95;;;;;;;;;;5077081;28;20201;-83
2021/12/25 10:37:14;;;;;;;2.60;2.40;;;;;;;;;;5058891;28;20213;-85
2021/12/25 10:39:42;;;;;;;2.53;2.33;;;;;;;;;;5074652;28;20649;-86
2021/12/25 10:42:11;;;;;;;2.58;2.38;;;;;;;;;;5054135;28;20641;-82
2021/12/25 10:44:40;;;;;;;3.03;2.72;;;;;;;;;;5070482;28;20198;-86
2021/12/25 10:47:10;;;;;;;3.00;2.70;;;;;;;;;;5052015;28;20643;-85
2021/12/25 10:49:39;;;;;;;2.67;2.15;;;;;;;;;;5091685;28;20228;-84
2021/12/25 10:52:12;;;;;;;3.35;2.00;;;;;;;;;;5090574;28;20197;-84
2021/12/25 10:54:41;;;;;;;2.22;2.03;;;;;;;;;;5088541;28;20203;-85
2021/12/25 10:57:08;;;;;;;2.60;2.40;;;;;;;;;;5079345;28;20210;-85
2021/12/25 10:59:44;;;;;;;1.95;1.75;;;;;;;;;;5076342;28;20198;-88
2021/12/25 11:02:28;;;;;;;2.35;2.15;;;;;;;;;;5071686;28;20193;-84
2021/12/25 11:04:55;;;;;;;2.05;1.90;;;;;;;;;;5073104;28;20208;-82
2021/12/25 11:07:22;;;;;;;2.22;2.03;;;;;;;;;;5085077;28;20204;-82
2021/12/25 11:10:03;;;;;;;3.15;2.85;;;;;;;;;;5088559;28;20681;-83
2021/12/25 11:12:31;;;;;;;2.70;2.50;;;;;;;;;;5084803;28;20197;-85
2021/12/25 11:15:09;;;;;;;2.53;2.33;;;;;;;;;;5075990;28;20574;-85
2021/12/25 11:17:40;;;;;;;1.75;1.65;;;;;;;;;;5075245;28;20236;-81
2021/12/25 11:20:08;;;;;;;2.50;2.03;;;;;;;;;;5087964;28;20213;-85
2021/12/25 11:22:46;;;;;;;2.00;1.90;;;;;;;;;;5088803;28;20667;-85
2021/12/25 11:25:13;;;;;;;2.83;2.08;;;;;;;;;;5081781;28;20189;-85
2021/12/25 11:27:40;;;;;;;3.03;2.53;;;;;;;;;;5085342;28;20288;-84
2021/12/25 11:30:08;;;;;;;3.28;2.63;;;;;;;;;;5075620;28;20318;-83
2021/12/25 11:32:35;;;;;;;2.67;2.45;;;;;;;;;;5076370;28;21759;-86
2021/12/25 11:35:05;;;;;;;2.65;2.22;;;;;;;;;;5088505;28;20227;-84
2021/12/25 11:37:33;;;;;;;3.15;2.47;;;;;;;;;;5071065;28;20231;-83
2021/12/25 11:40:00;;;;;;;2.28;2.05;;;;;;;;;;5072187;28;20225;-86
2021/12/25 11:42:29;;;;;;;2.63;2.40;;;;;;;;;;5087902;28;20190;-84
2021/12/25 11:44:56;;;;;;;2.42;2.22;;;;;;;;;;5094513;28;20262;-83
2021/12/25 11:47:33;;;;;;;2.17;1.98;;;;;;;;;;5080569;28;20202;-86
2021/12/25 11:50:01;;;;;;;2.47;2.28;;;;;;;;;;5084636;28;20627;-81
2021/12/25 11:52:35;;;;;;;3.08;2.53;;;;;;;;;;5075504;28;20347;-84
2021/12/25 11:55:26;;;;;;;2.80;2.53;;;;;;;;;;5094085;28;20265;-84
2021/12/25 11:58:02;;;;;;;3.05;2.75;;;;;;;;;;5091669;28;20288;-81
2021/12/25 12:00:35;;;;;;;5.53;2.67;;;;;;;;;;5091404;28;20209;-84
2021/12/25 12:03:02;;;;;;;2.67;2.47;;;;;;;;;;5068486;28;20193;-81
2021/12/25 12:05:31;;;;;;;2.60;2.35;;;;;;;;;;5091267;28;20669;-85
2021/12/25 12:08:02;;;;;;;3.20;2.97;;;;;;;;;;5093632;28;20194;-81
2021/12/25 12:10:44;;;;;;;2.97;2.67;;;;;;;;;;5064368;28;20312;-84
2021/12/25 12:13:20;;;;;;;2.58;2.30;;;;;;;;;;5062215;28;20205;-82
2021/12/25 12:15:48;;;;;;;3.30;2.65;;;;;;;;;;5055384;28;20551;-83
2021/12/25 12:18:31;;;;;;;3.90;3.53;;;;;;;;;;5080588;28;20229;-82
2021/12/25 12:21:00;;;;;;;3.45;2.83;;;;;;;;;;5089736;28;20223;-83
2021/12/25 12:23:37;;;;;;;2.78;2.55;;;;;;;;;;5061589;28;20189;-82
2021/12/25 12:26:08;;;;;;;3.53;3.22;;;;;;;;;;5091670;28;20557;-80
2021/12/25 12:28:50;;;;;;;3.97;3.17;;;;;;;;;;5080816;28;20221;-79
2021/12/25 12:31:32;;;;;;;2.78;2.58;;;;;;;;;;5077074;28;20213;-85
2021/12/25 12:33:59;;;;;;;3.00;2.70;;;;;;;;;;5079573;28;20213;-82
2021/12/25 12:36:28;;;;;;;3.40;3.10;;;;;;;;;;5075495;28;20202;-84
2021/12/25 12:39:10;;;;;;;3.38;2.90;;;;;;;;;;5071659;28;20194;-81
2021/12/25 12:41:42;;;;;;;2.80;2.58;;;;;;;;;;5058849;28;20221;-83
2021/12/25 12:44:11;;;;;;;5.68;2.88;;;;;;;;;;5090326;28;20804;-83
2021/12/25 12:46:53;;;;;;;3.45;3.15;;;;;;;;;;5088234;28;20205;-82
2021/12/25 12:49:22;;;;;;;3.10;2.80;;;;;;;;;;5079059;28;20722;-79
2021/12/25 12:51:50;;;;;;;3.65;2.97;;;;;;;;;;5077046;28;20221;-81
2021/12/25 12:54:31;;;;;;;2.65;2.45;;;;;;;;;;5070993;28;20197;-80
2021/12/25 12:57:05;;;;;;;3.13;2.92;;;;;;;;;;5055169;28;20581;-82
2021/12/25 12:59:42;;;;;;;3.05;2.80;;;;;;;;;;5072733;28;20205;-81
2021/12/25 13:02:10;;;;;;;2.67;2.47;;;;;;;;;;5090980;28;20209;-79
2021/12/25 13:04:42;;;;;;;3.45;2.80;;;;;;;;;;5089864;28;20202;-79
2021/12/25 13:07:11;;;;;;;3.30;2.83;;;;;;;;;;5079093;28;20309;-80
2021/12/25 13:09:43;;;;;;;4.97;2.88;;;;;;;;;;5077825;28;20231;-81
2021/12/25 13:12:26;;;;;;;2.80;2.60;;;;;;;;;;5091827;28;20735;-79
2021/12/25 13:15:01;;;;;;;2.90;2.70;;;;;;;;;;5090124;28;20303;-80
2021/12/25 13:17:28;;;;;;;3.50;3.20;;;;;;;;;;5055245;28;20229;-79
2021/12/25 13:19:55;;;;;;;3.53;2.83;;;;;;;;;;5057776;28;20226;-79
2021/12/25 13:22:23;;;;;;;3.10;2.63;;;;;;;;;;5055690;28;20201;-79
2021/12/25 13:24:55;;;;;;;3.53;3.20;;;;;;;;;;5055566;28;20595;-78
2021/12/25 13:27:24;;;;;;;3.28;2.95;;;;;;;;;;5055839;28;20202;-79
2021/12/25 13:29:51;;;;;;;4.15;2.97;;;;;;;;;;5066241;28;20222;-79
2021/12/25 13:32:26;;;;;;;3.22;3.03;;;;;;;;;;5068647;28;20201;-79
2021/12/25 13:34:54;;;;;;;3.40;3.10;;;;;;;;;;5068045;28;20201;-79
2021/12/25 13:37:21;;;;;;;3.55;3.25;;;;;;;;;;5050497;28;20213;-78
2021/12/25 13:39:48;;;;;;;4.47;3.40;;;;;;;;;;5056059;28;20215;-78
2021/12/25 13:42:17;;;;;;;4.53;3.28;;;;;;;;;;5057904;28;20206;-77
2021/12/25 13:44:46;;;;;;;2.75;2.55;;;;;;;;;;5052505;28;20660;-79
2021/12/25 13:47:17;;;;;;;2.85;2.50;;;;;;;;;;5055291;28;20197;-78
2021/12/25 13:49:46;;;;;;;2.28;2.08;;;;;;;;;;5068214;28;20225;-79
2021/12/25 13:52:15;;;;;;;4.05;2.50;;;;;;;;;;5067373;28;20190;-79
2021/12/25 13:54:43;;;;;;;2.63;2.40;;;;;;;;;;5055103;28;20249;-79
2021/12/25 13:57:12;;;;;;;2.65;2.45;;;;;;;;;;5058697;28;20204;-78
2021/12/25 13:59:39;;;;;;;2.42;2.22;;;;;;;;;;5059691;28;20824;-79
2021/12/25 14:02:09;;;;;;;4.82;2.70;;;;;;;;;;5063546;28;20286;-79
2021/12/25 14:04:38;;;;;;;3.72;2.95;;;;;;;;;;5050028;28;20203;-78
2021/12/25 14:07:06;;;;;;;2.53;2.33;;;;;;;;;;5058387;28;20190;-80
2021/12/25 14:09:35;;;;;;;2.47;2.28;;;;;;;;;;5061129;28;20214;-77
2021/12/25 14:12:03;;;;;;;3.97;3.33;;;;;;;;;;5053982;28;20190;-77
2021/12/25 14:14:31;;;;;;;2.80;2.55;;;;;;;;;;5054149;28;20190;-76
2021/12/25 14:16:59;;;;;;;3.08;2.63;;;;;;;;;;5070048;28;20195;-77
2021/12/25 14:19:29;;;;;;;4.07;2.42;;;;;;;;;;5074925;28;20227;-77
2021/12/25 14:21:57;;;;;;;2.33;2.13;;;;;;;;;;5078980;28;20263;-78
2021/12/25 14:24:24;;;;;;;2.60;2.40;;;;;;;;;;5063305;28;20197;-78
2021/12/25 14:26:52;;;;;;;2.10;2.00;;;;;;;;;;5076517;28;20209;-78
2021/12/25 14:29:20;;;;;;;2.53;2.33;;;;;;;;;;5069389;28;20225;-78
2021/12/25 14:31:47;;;;;;;2.30;2.10;;;;;;;;;;5090571;28;20209;-76
2021/12/25 14:34:14;;;;;;;2.60;2.40;;;;;;;;;;5090341;28;20205;-78
2021/12/25 14:36:43;;;;;;;2.60;2.15;;;;;;;;;;5090665;28;20220;-78
2021/12/25 14:39:14;;;;;;;3.42;2.55;;;;;;;;;;5063977;28;20201;-78
2021/12/25 14:41:42;;;;;;;2.38;2.17;;;;;;;;;;5059298;28;20228;-79
2021/12/25 14:44:17;;;;;;;2.70;2.50;;;;;;;;;;5055237;28;20228;-77
2021/12/25 14:46:45;;;;;;;2.97;2.67;;;;;;;;;;5070733;28;20202;-77
2021/12/25 14:49:12;;;;;;;2.60;2.40;;;;;;;;;;5088403;28;20235;-78
2021/12/25 14:51:41;;;;;;;2.40;2.20;;;;;;;;;;5087565;28;20223;-78
2021/12/25 14:54:31;;;;;;;3.85;2.70;;;;;;;;;;5022257;28;20203;-77
2021/12/25 14:56:58;;;;;;;3.05;2.75;;;;;;;;;;5014557;28;20301;-79
2021/12/25 14:59:26;;;;;;;3.00;2.67;;;;;;;;;;5008609;28;20204;-79
2021/12/25 15:01:54;;;;;;;2.65;2.45;;;;;;;;;;5023956;28;20191;-79
2021/12/25 15:04:25;;;;;;;2.95;2.65;;;;;;;;;;4997939;28;20769;-77
2021/12/25 15:06:54;;;;;;;3.13;2.83;;;;;;;;;;5017703;28;20202;-77
2021/12/25 15:09:22;;;;;;;2.97;2.33;;;;;;;;;;5011018;28;20233;-79
2021/12/25 15:11:54;;;;;;;4.10;3.17;;;;;;;;;;5032810;28;20201;-76
2021/12/25 15:14:25;;;;;;;3.17;2.80;;;;;;;;;;5074176;28;20197;-78
2021/12/25 15:16:53;;;;;;;2.95;2.75;;;;;;;;;;5086840;28;20211;-77
2021/12/25 15:19:23;;;;;;;2.78;2.58;;;;;;;;;;5080641;28;20198;-76
2021/12/25 15:21:50;;;;;;;2.72;2.45;;;;;;;;;;5075859;28;20274;-77
2021/12/25 15:24:18;;;;;;;3.45;3.15;;;;;;;;;;5055948;28;20204;-77
2021/12/25 15:26:47;;;;;;;2.97;2.63;;;;;;;;;;5054269;28;20681;-77
2021/12/25 15:29:16;;;;;;;3.78;2.78;;;;;;;;;;5055454;28;20757;-77
2021/12/25 15:31:44;;;;;;;2.75;2.50;;;;;;;;;;5088430;28;20549;-76
2021/12/25 15:34:13;;;;;;;3.65;2.67;;;;;;;;;;5092289;28;20197;-76
2021/12/25 15:36:45;;;;;;;3.00;2.72;;;;;;;;;;5073918;28;20193;-78